Time;durP1;ratioP1;P1;durP2;ratioP2;P2;SDS_P1;SDS_P2;PMS_P1;PMS_P2;Temp;Humidity;BMP_temperature;BMP_pressure;BME280_temperature;BME280_humidity;BME280_pressure;Samples;Min_cycle;Max_cycle;Signal;HPM_P1;HPM_P2
2023/05/06 00:00:17;;;;;;;0.30;0.30;;;;;;;;;;5069592;28;20196;-57
2023/05/06 00:02:44;;;;;;;3.03;0.50;;;;;;;;;;5068498;28;20207;-57
2023/05/06 00:05:12;;;;;;;0.88;0.65;;;;;;;;;;5070070;28;20239;-57
2023/05/06 00:07:40;;;;;;;2.55;0.50;;;;;;;;;;5069521;28;20199;-57
2023/05/06 00:10:07;;;;;;;0.40;0.40;;;;;;;;;;5069956;28;20199;-57
2023/05/06 00:12:34;;;;;;;1.77;0.40;;;;;;;;;;5069289;28;20669;-57
2023/05/06 00:15:03;;;;;;;0.40;0.40;;;;;;;;;;5069661;28;20244;-57
2023/05/06 00:17:30;;;;;;;0.52;0.52;;;;;;;;;;5068603;28;20203;-57
2023/05/06 00:19:57;;;;;;;0.65;0.65;;;;;;;;;;5068998;28;20264;-57
2023/05/06 00:22:24;;;;;;;1.65;0.50;;;;;;;;;;5065505;28;20286;-57
2023/05/06 00:24:51;;;;;;;1.00;0.60;;;;;;;;;;5068410;28;20600;-57
2023/05/06 00:27:18;;;;;;;0.55;0.55;;;;;;;;;;5069126;28;20206;-57
2023/05/06 00:29:45;;;;;;;0.60;0.50;;;;;;;;;;5069073;28;20261;-57
2023/05/06 00:32:14;;;;;;;0.57;0.57;;;;;;;;;;5068350;28;20644;-57
2023/05/06 00:34:41;;;;;;;1.80;0.40;;;;;;;;;;5069119;28;20265;-57
2023/05/06 00:37:08;;;;;;;0.40;0.40;;;;;;;;;;5068864;28;20676;-57
2023/05/06 00:39:35;;;;;;;0.63;0.47;;;;;;;;;;5068704;28;20645;-58
2023/05/06 00:42:02;;;;;;;0.98;0.40;;;;;;;;;;5068496;28;20203;-57
2023/05/06 00:44:29;;;;;;;0.55;0.45;;;;;;;;;;5068282;28;20333;-57
2023/05/06 00:46:56;;;;;;;0.40;0.40;;;;;;;;;;5068834;28;20943;-57
2023/05/06 00:49:24;;;;;;;0.52;0.50;;;;;;;;;;5068442;28;20207;-57
2023/05/06 00:51:52;;;;;;;0.82;0.75;;;;;;;;;;5069121;28;20222;-57
2023/05/06 00:54:19;;;;;;;1.65;0.50;;;;;;;;;;5068033;28;20252;-57
2023/05/06 00:56:46;;;;;;;1.27;0.57;;;;;;;;;;5068613;28;20211;-57
2023/05/06 00:59:13;;;;;;;0.75;0.50;;;;;;;;;;5066507;28;20203;-57
2023/05/06 01:01:40;;;;;;;0.52;0.52;;;;;;;;;;5064509;28;20461;-57
2023/05/06 01:04:07;;;;;;;0.20;0.20;;;;;;;;;;5066848;28;20318;-57
2023/05/06 01:06:40;;;;;;;0.40;0.40;;;;;;;;;;5066156;28;20215;-57
2023/05/06 01:09:10;;;;;;;0.40;0.40;;;;;;;;;;5068274;28;20256;-57
2023/05/06 01:11:41;;;;;;;0.70;0.55;;;;;;;;;;5068536;28;20249;-57
2023/05/06 01:14:11;;;;;;;0.82;0.68;;;;;;;;;;5068247;28;20203;-57
2023/05/06 01:16:40;;;;;;;2.15;0.55;;;;;;;;;;5068134;28;20638;-57
2023/05/06 01:19:09;;;;;;;0.88;0.57;;;;;;;;;;5068207;28;20210;-57
2023/05/06 01:21:40;;;;;;;0.30;0.30;;;;;;;;;;5068345;28;20214;-57
2023/05/06 01:24:08;;;;;;;0.30;0.30;;;;;;;;;;5067997;28;20222;-57
2023/05/06 01:26:35;;;;;;;2.57;0.40;;;;;;;;;;5067928;28;20207;-57
2023/05/06 01:29:03;;;;;;;0.90;0.60;;;;;;;;;;5067782;28;20207;-57
2023/05/06 01:31:33;;;;;;;0.40;0.40;;;;;;;;;;5067698;28;20203;-57
2023/05/06 01:34:06;;;;;;;0.40;0.40;;;;;;;;;;5067687;28;20195;-57
2023/05/06 01:36:37;;;;;;;0.47;0.47;;;;;;;;;;5067638;28;20290;-57
2023/05/06 01:39:09;;;;;;;0.50;0.50;;;;;;;;;;5067637;28;20786;-57
2023/05/06 01:41:39;;;;;;;0.60;0.60;;;;;;;;;;5067289;28;20243;-57
2023/05/06 01:44:07;;;;;;;0.30;0.30;;;;;;;;;;5066744;28;20828;-57
2023/05/06 01:46:34;;;;;;;0.57;0.57;;;;;;;;;;5066442;28;20207;-57
2023/05/06 01:49:02;;;;;;;0.40;0.40;;;;;;;;;;5066732;28;20268;-57
2023/05/06 01:51:29;;;;;;;0.20;0.20;;;;;;;;;;5066710;28;20319;-57
2023/05/06 01:53:56;;;;;;;1.17;0.40;;;;;;;;;;5066075;28;20207;-57
2023/05/06 01:56:25;;;;;;;0.90;0.40;;;;;;;;;;5065766;28;20276;-57
2023/05/06 01:58:54;;;;;;;0.40;0.40;;;;;;;;;;5066701;28;20215;-57
2023/05/06 02:01:21;;;;;;;0.50;0.50;;;;;;;;;;5066841;28;20560;-57
2023/05/06 02:03:48;;;;;;;0.68;0.43;;;;;;;;;;5066167;28;20199;-57
2023/05/06 02:06:15;;;;;;;0.50;0.50;;;;;;;;;;5066723;28;20754;-57
2023/05/06 02:08:42;;;;;;;0.35;0.35;;;;;;;;;;5066375;28;20207;-58
2023/05/06 02:11:09;;;;;;;1.57;0.60;;;;;;;;;;5066031;28;21622;-57
2023/05/06 02:13:36;;;;;;;0.50;0.50;;;;;;;;;;5065779;28;20209;-57
2023/05/06 02:16:04;;;;;;;1.10;0.55;;;;;;;;;;5065893;28;20268;-56
2023/05/06 02:18:31;;;;;;;0.50;0.50;;;;;;;;;;5062263;28;20207;-57
2023/05/06 02:20:58;;;;;;;0.50;0.40;;;;;;;;;;5063474;28;20222;-57
2023/05/06 02:23:25;;;;;;;0.50;0.32;;;;;;;;;;5065984;28;20292;-57
2023/05/06 02:25:52;;;;;;;4.78;0.85;;;;;;;;;;5065963;28;20292;-56
2023/05/06 02:28:19;;;;;;;1.70;0.50;;;;;;;;;;5065974;28;20726;-57
2023/05/06 02:30:46;;;;;;;0.50;0.30;;;;;;;;;;5065979;28;20211;-57
2023/05/06 02:33:15;;;;;;;0.63;0.60;;;;;;;;;;5065872;28;20222;-57
2023/05/06 02:35:42;;;;;;;0.97;0.40;;;;;;;;;;5065856;28;20206;-57
2023/05/06 02:38:09;;;;;;;3.40;0.63;;;;;;;;;;5065731;28;20583;-56
2023/05/06 02:40:36;;;;;;;0.73;0.47;;;;;;;;;;5065358;28;20234;-57
2023/05/06 02:43:03;;;;;;;0.50;0.50;;;;;;;;;;5065057;28;20576;-57
2023/05/06 02:45:30;;;;;;;0.40;0.40;;;;;;;;;;5065269;28;20218;-57
2023/05/06 02:47:57;;;;;;;0.57;0.57;;;;;;;;;;5063846;28;20881;-57
2023/05/06 02:50:25;;;;;;;0.40;0.40;;;;;;;;;;5065180;28;20348;-57
2023/05/06 02:52:52;;;;;;;0.57;0.57;;;;;;;;;;5065320;28;20236;-56
2023/05/06 02:55:19;;;;;;;0.50;0.50;;;;;;;;;;5065048;28;20280;-57
2023/05/06 02:57:46;;;;;;;0.60;0.60;;;;;;;;;;5063873;28;20207;-56
2023/05/06 03:00:14;;;;;;;0.60;0.60;;;;;;;;;;5065284;28;20210;-56
2023/05/06 03:02:41;;;;;;;0.60;0.60;;;;;;;;;;5065443;28;20207;-56
2023/05/06 03:05:08;;;;;;;0.47;0.47;;;;;;;;;;5065223;28;20222;-56
2023/05/06 03:07:37;;;;;;;0.50;0.50;;;;;;;;;;5059316;28;20576;-56
2023/05/06 03:10:04;;;;;;;0.50;0.50;;;;;;;;;;5064766;28;20203;-56
2023/05/06 03:12:31;;;;;;;0.73;0.73;;;;;;;;;;5064798;28;20333;-57
2023/05/06 03:14:58;;;;;;;0.60;0.60;;;;;;;;;;5065332;28;20650;-56
2023/05/06 03:17:25;;;;;;;0.50;0.50;;;;;;;;;;5064667;28;20275;-57
2023/05/06 03:19:52;;;;;;;0.80;0.67;;;;;;;;;;5064499;28;20290;-56
2023/05/06 03:22:19;;;;;;;0.57;0.57;;;;;;;;;;5064768;28;20219;-57
2023/05/06 03:24:48;;;;;;;0.50;0.50;;;;;;;;;;5064721;28;20318;-56
2023/05/06 03:27:15;;;;;;;0.90;0.90;;;;;;;;;;5067844;28;20673;-56
2023/05/06 03:29:42;;;;;;;2.53;0.80;;;;;;;;;;5068429;28;20204;-57
2023/05/06 03:32:09;;;;;;;0.70;0.70;;;;;;;;;;5068624;28;20364;-56
2023/05/06 03:34:36;;;;;;;0.57;0.57;;;;;;;;;;5068563;28;20285;-56
2023/05/06 03:37:03;;;;;;;0.60;0.60;;;;;;;;;;5068333;28;20300;-56
2023/05/06 03:39:30;;;;;;;1.40;0.70;;;;;;;;;;5067593;28;20256;-56
2023/05/06 03:41:58;;;;;;;0.77;0.77;;;;;;;;;;5068051;28;20292;-56
2023/05/06 03:44:25;;;;;;;2.40;0.93;;;;;;;;;;5068163;28;20228;-56
2023/05/06 03:46:52;;;;;;;1.53;0.70;;;;;;;;;;5067363;28;20304;-56
2023/05/06 03:49:20;;;;;;;0.97;0.70;;;;;;;;;;5067900;28;20882;-57
2023/05/06 03:51:47;;;;;;;0.70;0.70;;;;;;;;;;5068439;28;20207;-56
2023/05/06 03:54:14;;;;;;;0.70;0.70;;;;;;;;;;5068018;28;20489;-56
2023/05/06 03:56:41;;;;;;;0.83;0.83;;;;;;;;;;5067929;28;20252;-56
2023/05/06 03:59:09;;;;;;;0.67;0.67;;;;;;;;;;5067865;28;20241;-56
2023/05/06 04:01:36;;;;;;;0.57;0.57;;;;;;;;;;5067782;28;20313;-56
2023/05/06 04:04:03;;;;;;;0.80;0.80;;;;;;;;;;5068671;28;20218;-56
2023/05/06 04:06:30;;;;;;;2.60;0.77;;;;;;;;;;5068738;28;20280;-58
2023/05/06 04:08:57;;;;;;;0.87;0.87;;;;;;;;;;5068698;28;20199;-58
2023/05/06 04:11:24;;;;;;;2.00;0.90;;;;;;;;;;5067994;28;20253;-58
2023/05/06 04:13:51;;;;;;;0.60;0.60;;;;;;;;;;5068957;28;20305;-58
2023/05/06 04:16:20;;;;;;;1.30;1.10;;;;;;;;;;5068973;28;20195;-58
2023/05/06 04:18:48;;;;;;;0.67;0.67;;;;;;;;;;5068026;28;20207;-58
2023/05/06 04:21:15;;;;;;;2.13;0.73;;;;;;;;;;5068265;28;20264;-58
2023/05/06 04:23:43;;;;;;;3.03;0.60;;;;;;;;;;5068696;28;20223;-58
2023/05/06 04:26:10;;;;;;;0.70;0.70;;;;;;;;;;5068103;28;20675;-58
2023/05/06 04:28:37;;;;;;;0.63;0.63;;;;;;;;;;5068318;28;20623;-58
2023/05/06 04:31:07;;;;;;;0.73;0.73;;;;;;;;;;5067487;28;20207;-58
2023/05/06 04:33:35;;;;;;;0.73;0.73;;;;;;;;;;5067324;28;20203;-58
2023/05/06 04:36:02;;;;;;;0.50;0.50;;;;;;;;;;5067964;28;20666;-58
2023/05/06 04:38:30;;;;;;;1.03;1.03;;;;;;;;;;5067646;28;20309;-58
2023/05/06 04:40:58;;;;;;;4.63;0.90;;;;;;;;;;5067441;28;20249;-58
2023/05/06 04:43:26;;;;;;;0.70;0.70;;;;;;;;;;5067406;28;20249;-58
2023/05/06 04:45:54;;;;;;;2.53;0.70;;;;;;;;;;5068401;28;20218;-58
2023/05/06 04:48:21;;;;;;;2.00;0.67;;;;;;;;;;5067819;28;20716;-58
2023/05/06 04:50:50;;;;;;;0.80;0.80;;;;;;;;;;5067940;28;20202;-58
2023/05/06 04:53:17;;;;;;;0.50;0.50;;;;;;;;;;5067804;28;20206;-58
2023/05/06 04:55:44;;;;;;;0.80;0.80;;;;;;;;;;5068198;28;20627;-57
2023/05/06 04:58:11;;;;;;;2.40;0.53;;;;;;;;;;5068279;28;20226;-58
2023/05/06 05:00:38;;;;;;;0.70;0.70;;;;;;;;;;5067808;28;20202;-58
2023/05/06 05:03:05;;;;;;;0.60;0.60;;;;;;;;;;5062579;28;20210;-58
2023/05/06 05:05:33;;;;;;;1.43;0.73;;;;;;;;;;5068234;28;20303;-58
2023/05/06 05:08:01;;;;;;;1.03;0.80;;;;;;;;;;5067872;28;20294;-58
2023/05/06 05:10:28;;;;;;;0.53;0.53;;;;;;;;;;5067553;28;20256;-58
2023/05/06 05:12:55;;;;;;;0.80;0.80;;;;;;;;;;5067561;28;20701;-58
2023/05/06 05:15:22;;;;;;;0.57;0.57;;;;;;;;;;5070437;28;20199;-58
2023/05/06 05:17:50;;;;;;;1.07;1.07;;;;;;;;;;5068047;28;20211;-58
2023/05/06 05:20:17;;;;;;;0.67;0.67;;;;;;;;;;5075093;28;20202;-58
2023/05/06 05:22:44;;;;;;;1.45;0.80;;;;;;;;;;5073947;28;20258;-58
2023/05/06 05:25:12;;;;;;;0.85;0.85;;;;;;;;;;5067640;28;20230;-58
2023/05/06 05:27:41;;;;;;;0.90;0.90;;;;;;;;;;5067730;28;20218;-58
2023/05/06 05:30:08;;;;;;;0.80;0.80;;;;;;;;;;5067327;28;20218;-59
2023/05/06 05:32:35;;;;;;;1.08;0.88;;;;;;;;;;5067131;28;20249;-57
2023/05/06 05:35:02;;;;;;;0.90;0.90;;;;;;;;;;5067421;28;20195;-57
2023/05/06 05:37:30;;;;;;;0.70;0.70;;;;;;;;;;5067712;28;20280;-56
2023/05/06 05:39:57;;;;;;;0.93;0.93;;;;;;;;;;5067088;28;20319;-57
2023/05/06 05:42:25;;;;;;;0.80;0.80;;;;;;;;;;5066986;28;20199;-57
2023/05/06 05:44:52;;;;;;;0.88;0.88;;;;;;;;;;5067463;28;20207;-57
2023/05/06 05:47:19;;;;;;;0.60;0.60;;;;;;;;;;5066238;28;20207;-57
2023/05/06 05:49:46;;;;;;;0.82;0.80;;;;;;;;;;5066334;28;20231;-56
2023/05/06 05:52:13;;;;;;;1.45;0.73;;;;;;;;;;5067293;28;20268;-57
2023/05/06 05:54:40;;;;;;;2.03;0.70;;;;;;;;;;5067135;28;20776;-56
2023/05/06 05:57:07;;;;;;;0.60;0.60;;;;;;;;;;5067702;28;20211;-57
2023/05/06 05:59:37;;;;;;;0.82;0.82;;;;;;;;;;5067648;28;20211;-57
2023/05/06 06:02:04;;;;;;;0.70;0.70;;;;;;;;;;5067396;28;20585;-57
2023/05/06 06:04:31;;;;;;;0.82;0.82;;;;;;;;;;5067211;28;20222;-57
2023/05/06 06:07:00;;;;;;;0.80;0.80;;;;;;;;;;5067048;28;20227;-57
2023/05/06 06:09:27;;;;;;;0.63;0.50;;;;;;;;;;5047515;28;20644;-57
2023/05/06 06:11:54;;;;;;;0.60;0.60;;;;;;;;;;5050216;28;20203;-56
2023/05/06 06:14:21;;;;;;;0.70;0.70;;;;;;;;;;5066983;28;20594;-57
2023/05/06 06:16:49;;;;;;;0.80;0.80;;;;;;;;;;5067137;28;20203;-57
2023/05/06 06:19:17;;;;;;;1.00;0.43;;;;;;;;;;5067392;28;20222;-57
2023/05/06 06:21:44;;;;;;;0.60;0.60;;;;;;;;;;5065818;28;20734;-56
2023/05/06 06:24:11;;;;;;;0.75;0.50;;;;;;;;;;5064885;28;20222;-57
2023/05/06 06:26:38;;;;;;;0.55;0.55;;;;;;;;;;5067169;28;20242;-57
2023/05/06 06:29:05;;;;;;;0.55;0.55;;;;;;;;;;5066975;28;20211;-58
2023/05/06 06:31:32;;;;;;;0.60;0.60;;;;;;;;;;5066667;28;20269;-55
2023/05/06 06:34:04;;;;;;;0.73;0.60;;;;;;;;;;5065828;28;20246;-56
2023/05/06 06:36:31;;;;;;;0.45;0.45;;;;;;;;;;5046908;28;20215;-55
2023/05/06 06:38:58;;;;;;;0.70;0.70;;;;;;;;;;5063539;28;20207;-56
2023/05/06 06:41:25;;;;;;;0.77;0.60;;;;;;;;;;5065848;28;20239;-57
2023/05/06 06:43:52;;;;;;;0.50;0.50;;;;;;;;;;5065427;28;20252;-57
2023/05/06 06:46:19;;;;;;;0.60;0.60;;;;;;;;;;5065224;28;20219;-57
2023/05/06 06:48:46;;;;;;;0.60;0.60;;;;;;;;;;5061571;28;20207;-57
2023/05/06 06:51:14;;;;;;;0.50;0.50;;;;;;;;;;5067407;28;20210;-58
2023/05/06 06:53:41;;;;;;;0.68;0.60;;;;;;;;;;5066043;28;20210;-57
2023/05/06 06:56:10;;;;;;;0.52;0.52;;;;;;;;;;5073562;28;20304;-58
2023/05/06 06:58:37;;;;;;;0.50;0.50;;;;;;;;;;5066211;28;20299;-58
2023/05/06 07:01:04;;;;;;;0.60;0.60;;;;;;;;;;5084147;28;20214;-57
2023/05/06 07:03:31;;;;;;;0.85;0.73;;;;;;;;;;5075205;28;20268;-57
2023/05/06 07:05:59;;;;;;;0.70;0.70;;;;;;;;;;5069728;28;20227;-57
2023/05/06 07:08:27;;;;;;;0.40;0.40;;;;;;;;;;5068684;28;20268;-57
2023/05/06 07:10:55;;;;;;;0.70;0.70;;;;;;;;;;5069110;28;20611;-58
2023/05/06 07:13:22;;;;;;;0.50;0.50;;;;;;;;;;5069567;28;20221;-57
2023/05/06 07:15:50;;;;;;;0.55;0.50;;;;;;;;;;5069401;28;20241;-57
2023/05/06 07:18:17;;;;;;;1.38;0.50;;;;;;;;;;5069288;28;20215;-57
2023/05/06 07:20:44;;;;;;;0.50;0.50;;;;;;;;;;5069415;28;20279;-57
2023/05/06 07:23:11;;;;;;;0.50;0.50;;;;;;;;;;5069022;28;20292;-57
2023/05/06 07:25:39;;;;;;;0.50;0.50;;;;;;;;;;5068127;28;20289;-57
2023/05/06 07:28:06;;;;;;;0.75;0.43;;;;;;;;;;5068765;28;20210;-57
2023/05/06 07:30:33;;;;;;;0.38;0.38;;;;;;;;;;5069180;28;20207;-57
2023/05/06 07:33:00;;;;;;;1.17;0.50;;;;;;;;;;5066929;28;20634;-59
2023/05/06 07:35:27;;;;;;;1.10;0.57;;;;;;;;;;5068695;28;20207;-58
2023/05/06 07:37:54;;;;;;;0.43;0.43;;;;;;;;;;5068865;28;20324;-58
2023/05/06 07:40:21;;;;;;;0.60;0.60;;;;;;;;;;5068149;28;20410;-57
2023/05/06 07:42:50;;;;;;;0.80;0.80;;;;;;;;;;5069156;28;20207;-58
2023/05/06 07:45:18;;;;;;;0.50;0.50;;;;;;;;;;5068421;28;20210;-57
2023/05/06 07:47:45;;;;;;;0.52;0.52;;;;;;;;;;5067722;28;20627;-57
2023/05/06 07:50:15;;;;;;;0.57;0.57;;;;;;;;;;5068471;28;20263;-57
2023/05/06 07:52:42;;;;;;;1.45;0.60;;;;;;;;;;5067400;28;20254;-57
2023/05/06 07:55:10;;;;;;;0.50;0.50;;;;;;;;;;5066849;28;20207;-57
2023/05/06 07:57:37;;;;;;;0.60;0.60;;;;;;;;;;5068328;28;20225;-57
2023/05/06 08:00:08;;;;;;;0.50;0.50;;;;;;;;;;5068824;28;20211;-57
2023/05/06 08:02:35;;;;;;;0.60;0.60;;;;;;;;;;5068444;28;20210;-57
2023/05/06 08:05:02;;;;;;;0.55;0.55;;;;;;;;;;5048579;28;20219;-57
2023/05/06 08:07:29;;;;;;;0.73;0.68;;;;;;;;;;5058454;28;20668;-57
2023/05/06 08:09:56;;;;;;;1.83;0.65;;;;;;;;;;5068417;28;20207;-57
2023/05/06 08:12:23;;;;;;;1.05;0.60;;;;;;;;;;5068240;28;20218;-57
2023/05/06 08:14:50;;;;;;;0.63;0.60;;;;;;;;;;5068454;28;20580;-57
2023/05/06 08:17:19;;;;;;;0.98;0.40;;;;;;;;;;5063508;28;20210;-57
2023/05/06 08:19:45;;;;;;;0.88;0.60;;;;;;;;;;5066644;28;20674;-57
2023/05/06 08:22:13;;;;;;;0.50;0.50;;;;;;;;;;5068413;28;20203;-58
2023/05/06 08:24:40;;;;;;;0.45;0.45;;;;;;;;;;5068306;28;20568;-57
2023/05/06 08:27:07;;;;;;;0.55;0.55;;;;;;;;;;5067042;28;20242;-58
2023/05/06 08:29:34;;;;;;;0.63;0.50;;;;;;;;;;5067866;28;20199;-57
2023/05/06 08:32:01;;;;;;;0.40;0.40;;;;;;;;;;5067858;28;20615;-57
2023/05/06 08:34:30;;;;;;;0.95;0.50;;;;;;;;;;5067485;28;20348;-57
2023/05/06 08:36:57;;;;;;;0.30;0.30;;;;;;;;;;5066107;28;20302;-58
2023/05/06 08:39:24;;;;;;;0.38;0.38;;;;;;;;;;5067499;28;20622;-57
2023/05/06 08:41:52;;;;;;;0.52;0.47;;;;;;;;;;5066406;28;20713;-57
2023/05/06 08:44:20;;;;;;;0.52;0.52;;;;;;;;;;5067761;28;20284;-57
2023/05/06 08:46:47;;;;;;;0.30;0.30;;;;;;;;;;5067942;28;20222;-57
2023/05/06 08:49:15;;;;;;;0.35;0.35;;;;;;;;;;5067998;28;20272;-57
2023/05/06 08:51:44;;;;;;;0.60;0.60;;;;;;;;;;5067176;28;20203;-57
2023/05/06 08:54:11;;;;;;;0.40;0.40;;;;;;;;;;5067639;28;21057;-58
2023/05/06 08:56:39;;;;;;;0.55;0.55;;;;;;;;;;5066956;28;20207;-57
2023/05/06 08:59:07;;;;;;;0.50;0.50;;;;;;;;;;5063193;28;20207;-58
2023/05/06 09:01:35;;;;;;;0.60;0.60;;;;;;;;;;5064262;28;20218;-59
2023/05/06 09:04:04;;;;;;;0.40;0.40;;;;;;;;;;5057397;28;20219;-59
2023/05/06 09:06:31;;;;;;;0.45;0.45;;;;;;;;;;5061129;28;20250;-59
2023/05/06 09:09:00;;;;;;;0.52;0.52;;;;;;;;;;5065634;28;20203;-59
2023/05/06 09:11:28;;;;;;;0.47;0.47;;;;;;;;;;5062245;28;20261;-59
2023/05/06 09:14:08;;;;;;;0.40;0.40;;;;;;;;;;5064585;28;20245;-60
2023/05/06 09:16:35;;;;;;;0.50;0.50;;;;;;;;;;5062819;28;20248;-59
2023/05/06 09:19:02;;;;;;;0.47;0.47;;;;;;;;;;5066359;28;20203;-59
2023/05/06 09:21:35;;;;;;;0.30;0.30;;;;;;;;;;5067081;28;20230;-58
2023/05/06 09:24:04;;;;;;;0.30;0.30;;;;;;;;;;5064245;28;20282;-60
2023/05/06 09:26:32;;;;;;;0.40;0.40;;;;;;;;;;5065808;28;20222;-59
2023/05/06 09:29:00;;;;;;;0.50;0.50;;;;;;;;;;5066510;28;20243;-59
2023/05/06 09:31:27;;;;;;;0.40;0.40;;;;;;;;;;5064476;28;20589;-60
2023/05/06 09:33:55;;;;;;;0.30;0.30;;;;;;;;;;5065795;28;20203;-60
2023/05/06 09:36:22;;;;;;;0.57;0.30;;;;;;;;;;5066277;28;20653;-60
2023/05/06 09:38:49;;;;;;;0.65;0.17;;;;;;;;;;5066193;28;20203;-61
2023/05/06 09:41:19;;;;;;;0.13;0.13;;;;;;;;;;5065381;28;20242;-59
2023/05/06 09:43:48;;;;;;;0.15;0.15;;;;;;;;;;5061387;28;20817;-59
2023/05/06 09:46:15;;;;;;;0.40;0.40;;;;;;;;;;5064019;28;20590;-59
2023/05/06 09:48:42;;;;;;;0.20;0.20;;;;;;;;;;5067470;28;20195;-59
2023/05/06 09:51:09;;;;;;;0.20;0.20;;;;;;;;;;5067334;28;20818;-60
2023/05/06 09:53:37;;;;;;;0.30;0.30;;;;;;;;;;5065534;28;20278;-59
2023/05/06 09:56:04;;;;;;;0.30;0.30;;;;;;;;;;5065611;28;20227;-59
2023/05/06 09:58:33;;;;;;;0.20;0.20;;;;;;;;;;5066170;28;20207;-59
2023/05/06 10:01:00;;;;;;;0.40;0.40;;;;;;;;;;5064199;28;20298;-60
2023/05/06 10:03:27;;;;;;;0.30;0.30;;;;;;;;;;5063912;28;20286;-60
2023/05/06 10:05:56;;;;;;;0.28;0.28;;;;;;;;;;5066062;28;20669;-59
2023/05/06 10:08:24;;;;;;;0.20;0.20;;;;;;;;;;5066428;28;20747;-59
2023/05/06 10:10:51;;;;;;;0.30;0.30;;;;;;;;;;5067549;28;20235;-60
2023/05/06 10:13:20;;;;;;;0.32;0.32;;;;;;;;;;5066570;28;20203;-60
2023/05/06 10:15:49;;;;;;;0.28;0.28;;;;;;;;;;5063578;28;20276;-59
2023/05/06 10:18:16;;;;;;;0.20;0.20;;;;;;;;;;5068134;28;20207;-59
2023/05/06 10:20:45;;;;;;;0.40;0.40;;;;;;;;;;5065532;28;20758;-59
2023/05/06 10:23:14;;;;;;;0.40;0.40;;;;;;;;;;5066028;28;20578;-59
2023/05/06 10:25:42;;;;;;;10.20;7.05;;;;;;;;;;5065637;28;20217;-58
2023/05/06 10:28:10;;;;;;;8.77;5.90;;;;;;;;;;5070256;28;20230;-58
2023/05/06 10:30:38;;;;;;;0.30;0.30;;;;;;;;;;5066534;28;20618;-61
2023/05/06 10:33:07;;;;;;;0.30;0.30;;;;;;;;;;5065748;28;20210;-60
2023/05/06 10:35:39;;;;;;;0.30;0.30;;;;;;;;;;5065956;28;20202;-59
2023/05/06 10:38:08;;;;;;;0.20;0.20;;;;;;;;;;5074790;28;20191;-59
2023/05/06 10:40:35;;;;;;;0.22;0.22;;;;;;;;;;5068640;28;20681;-59
2023/05/06 10:43:22;;;;;;;1.88;0.20;;;;;;;;;;5068927;28;20225;-58
2023/05/06 10:46:00;;;;;;;0.25;0.25;;;;;;;;;;5066050;28;20673;-57
2023/05/06 10:48:28;;;;;;;0.20;0.20;;;;;;;;;;5066426;28;20309;-59
2023/05/06 10:51:14;;;;;;;0.20;0.20;;;;;;;;;;5069232;28;20686;-59
2023/05/06 10:54:11;;;;;;;0.20;0.20;;;;;;;;;;5068094;28;20210;-59
2023/05/06 10:56:38;;;;;;;0.22;0.22;;;;;;;;;;5007121;28;20205;-61
2023/05/06 10:59:09;;;;;;;0.20;0.20;;;;;;;;;;5051225;28;20195;-61
2023/05/06 11:01:37;;;;;;;1.08;0.30;;;;;;;;;;5068527;28;20206;-61
2023/05/06 11:04:09;;;;;;;0.63;0.30;;;;;;;;;;5069046;28;20203;-60
2023/05/06 11:06:37;;;;;;;0.20;0.20;;;;;;;;;;5068534;28;20202;-61
2023/05/06 11:09:05;;;;;;;0.20;0.20;;;;;;;;;;5064803;28;20211;-61
2023/05/06 11:11:52;;;;;;;0.85;0.20;;;;;;;;;;5064779;28;20200;-61
2023/05/06 11:14:26;;;;;;;0.20;0.20;;;;;;;;;;5067656;28;20206;-61
2023/05/06 11:16:55;;;;;;;0.30;0.30;;;;;;;;;;5067282;28;20315;-61
2023/05/06 11:19:25;;;;;;;0.30;0.20;;;;;;;;;;5066382;28;20211;-61
2023/05/06 11:21:53;;;;;;;0.60;0.30;;;;;;;;;;5059494;28;20465;-60
2023/05/06 11:24:23;;;;;;;1.95;0.30;;;;;;;;;;5063569;28;20227;-61
2023/05/06 11:26:51;;;;;;;0.45;0.30;;;;;;;;;;5064641;28;20214;-60
2023/05/06 11:29:18;;;;;;;0.22;0.22;;;;;;;;;;5067177;28;20813;-61
2023/05/06 11:31:46;;;;;;;0.30;0.30;;;;;;;;;;5067322;28;20203;-61
2023/05/06 11:34:14;;;;;;;0.20;0.20;;;;;;;;;;5065874;28;20199;-61
2023/05/06 11:36:50;;;;;;;1.00;0.38;;;;;;;;;;5069278;28;20201;-61
2023/05/06 11:39:17;;;;;;;1.27;0.30;;;;;;;;;;5065977;28;20210;-61
2023/05/06 11:41:44;;;;;;;0.38;0.30;;;;;;;;;;5066343;28;20238;-61
2023/05/06 11:44:13;;;;;;;0.38;0.38;;;;;;;;;;5063268;28;20203;-61
2023/05/06 11:46:40;;;;;;;0.28;0.28;;;;;;;;;;5066134;28;20199;-61
2023/05/06 11:49:07;;;;;;;0.30;0.30;;;;;;;;;;5064945;28;20231;-61
2023/05/06 11:51:34;;;;;;;1.38;0.30;;;;;;;;;;5067470;28;20684;-61
2023/05/06 11:54:07;;;;;;;0.30;0.30;;;;;;;;;;5067741;28;20207;-60
2023/05/06 11:56:44;;;;;;;0.20;0.20;;;;;;;;;;5065904;28;20210;-62
2023/05/06 11:59:11;;;;;;;0.22;0.22;;;;;;;;;;5065843;28;20210;-59
2023/05/06 12:01:41;;;;;;;0.40;0.40;;;;;;;;;;5068788;28;20289;-59
2023/05/06 12:04:08;;;;;;;0.30;0.30;;;;;;;;;;5065351;28;20207;-59
2023/05/06 12:06:35;;;;;;;0.50;0.50;;;;;;;;;;5063677;28;20223;-60
2023/05/06 12:09:04;;;;;;;0.30;0.30;;;;;;;;;;5062155;28;20318;-60
2023/05/06 12:11:33;;;;;;;1.02;0.40;;;;;;;;;;5062144;28;20199;-60
2023/05/06 12:14:00;;;;;;;0.30;0.30;;;;;;;;;;5066712;28;20215;-59
2023/05/06 12:16:27;;;;;;;0.50;0.50;;;;;;;;;;5062945;28;20843;-60
2023/05/06 12:18:55;;;;;;;0.40;0.40;;;;;;;;;;5065537;28;20194;-60
2023/05/06 12:21:23;;;;;;;0.20;0.20;;;;;;;;;;5066990;28;20210;-60
2023/05/06 12:23:53;;;;;;;0.35;0.35;;;;;;;;;;5064446;28;20681;-59
2023/05/06 12:26:21;;;;;;;0.52;0.52;;;;;;;;;;5065304;28;20260;-60
2023/05/06 12:29:03;;;;;;;0.60;0.43;;;;;;;;;;5064436;28;20664;-60
2023/05/06 12:31:30;;;;;;;0.55;0.55;;;;;;;;;;5061373;28;20268;-59
2023/05/06 12:33:57;;;;;;;0.40;0.40;;;;;;;;;;5064256;28;20649;-60
2023/05/06 12:36:25;;;;;;;0.40;0.40;;;;;;;;;;5062661;28;20942;-58
2023/05/06 12:38:52;;;;;;;0.30;0.30;;;;;;;;;;5066450;28;20715;-60
2023/05/06 12:41:20;;;;;;;0.82;0.60;;;;;;;;;;5064810;28;20227;-59
2023/05/06 12:43:47;;;;;;;1.60;0.43;;;;;;;;;;5067299;28;20207;-59
2023/05/06 12:46:16;;;;;;;0.40;0.40;;;;;;;;;;5063688;28;20536;-59
2023/05/06 12:48:56;;;;;;;0.60;0.50;;;;;;;;;;5066503;28;20226;-60
2023/05/06 12:51:23;;;;;;;1.75;0.40;;;;;;;;;;5069504;28;20917;-59
2023/05/06 12:53:50;;;;;;;0.30;0.30;;;;;;;;;;5068459;28;20833;-63
2023/05/06 12:56:17;;;;;;;0.40;0.40;;;;;;;;;;5069027;28;20235;-60
2023/05/06 12:58:44;;;;;;;0.45;0.45;;;;;;;;;;5064780;28;20622;-60
2023/05/06 13:01:11;;;;;;;0.57;0.30;;;;;;;;;;5064292;28;20212;-60
2023/05/06 13:03:40;;;;;;;2.45;0.50;;;;;;;;;;5055363;28;20700;-60
2023/05/06 13:06:07;;;;;;;0.30;0.30;;;;;;;;;;5065978;28;20211;-59
2023/05/06 13:08:34;;;;;;;2.17;0.40;;;;;;;;;;5066374;28;20226;-60
2023/05/06 13:11:01;;;;;;;0.38;0.38;;;;;;;;;;5074169;28;20238;-59
2023/05/06 13:13:29;;;;;;;4.65;0.32;;;;;;;;;;5068319;28;20206;-60
2023/05/06 13:15:56;;;;;;;0.90;0.28;;;;;;;;;;5068596;28;20211;-59
2023/05/06 13:18:23;;;;;;;1.95;0.50;;;;;;;;;;5068817;28;20669;-60
2023/05/06 13:20:52;;;;;;;0.50;0.40;;;;;;;;;;5071718;28;20194;-60
2023/05/06 13:23:19;;;;;;;0.30;0.30;;;;;;;;;;5072403;28;20254;-60
2023/05/06 13:25:46;;;;;;;0.30;0.30;;;;;;;;;;5065657;28;20577;-60
2023/05/06 13:28:13;;;;;;;0.40;0.40;;;;;;;;;;5068402;28;20231;-60
2023/05/06 13:30:40;;;;;;;0.55;0.55;;;;;;;;;;5078221;28;20259;-60
2023/05/06 13:33:07;;;;;;;0.30;0.30;;;;;;;;;;5086572;28;20289;-60
2023/05/06 13:35:34;;;;;;;0.40;0.40;;;;;;;;;;5063427;28;20217;-60
2023/05/06 13:38:03;;;;;;;0.30;0.30;;;;;;;;;;5064269;28;20236;-61
2023/05/06 13:40:30;;;;;;;1.75;0.50;;;;;;;;;;5066378;28;20238;-60
2023/05/06 13:42:57;;;;;;;0.40;0.40;;;;;;;;;;5067215;28;20203;-61
2023/05/06 13:45:24;;;;;;;9.70;4.82;;;;;;;;;;5065825;28;20295;-59
2023/05/06 13:47:52;;;;;;;0.57;0.57;;;;;;;;;;5061247;28;20215;-59
2023/05/06 13:50:19;;;;;;;1.73;0.75;;;;;;;;;;5067596;28;20202;-59
2023/05/06 13:52:46;;;;;;;0.60;0.60;;;;;;;;;;5067661;28;20218;-60
2023/05/06 13:55:15;;;;;;;0.40;0.40;;;;;;;;;;5064707;28;20264;-58
2023/05/06 13:57:42;;;;;;;1.00;0.30;;;;;;;;;;5067469;28;20215;-59
2023/05/06 14:00:10;;;;;;;0.40;0.40;;;;;;;;;;5067525;28;20203;-58
2023/05/06 14:02:37;;;;;;;0.70;0.45;;;;;;;;;;5067046;28;20668;-59
2023/05/06 14:05:04;;;;;;;0.50;0.50;;;;;;;;;;5064312;28;20288;-58
2023/05/06 14:07:31;;;;;;;0.50;0.50;;;;;;;;;;5065120;28;20203;-62
2023/05/06 14:09:58;;;;;;;0.40;0.40;;;;;;;;;;5065052;28;20233;-59
2023/05/06 14:12:27;;;;;;;0.70;0.32;;;;;;;;;;5062784;28;20265;-59
2023/05/06 14:14:54;;;;;;;0.40;0.40;;;;;;;;;;5065143;28;20211;-60
2023/05/06 14:17:21;;;;;;;0.60;0.60;;;;;;;;;;5065572;28;20210;-60
2023/05/06 14:19:48;;;;;;;2.72;0.60;;;;;;;;;;5065065;28;20248;-61
2023/05/06 14:22:15;;;;;;;0.70;0.70;;;;;;;;;;5066345;28;20268;-60
2023/05/06 14:24:42;;;;;;;0.50;0.50;;;;;;;;;;5065046;28;20218;-60
2023/05/06 14:27:09;;;;;;;1.20;0.50;;;;;;;;;;5064793;28;20319;-61
2023/05/06 14:29:37;;;;;;;0.90;0.90;;;;;;;;;;5066295;28;20227;-60
2023/05/06 14:32:05;;;;;;;0.40;0.40;;;;;;;;;;5067200;28;20215;-60
2023/05/06 14:34:35;;;;;;;0.50;0.50;;;;;;;;;;5066572;28;20234;-60
2023/05/06 14:37:02;;;;;;;0.63;0.63;;;;;;;;;;5067438;28;20584;-60
2023/05/06 14:39:29;;;;;;;0.90;0.90;;;;;;;;;;5067314;28;20264;-60
2023/05/06 14:41:56;;;;;;;1.67;0.90;;;;;;;;;;5066037;28;20226;-60
2023/05/06 14:44:23;;;;;;;0.50;0.50;;;;;;;;;;5066134;28;20217;-60
2023/05/06 14:46:51;;;;;;;0.90;0.90;;;;;;;;;;5065760;28;20199;-60